Knoxville, TN (37902)

1:40 PM EST on February 28, 2015 (GMT -0500)
South Hills | Change Station
CLOSE
Current Station
Personal Weather Station
Location: Knoxville, TN
Elevation: 938 ft
Nearby Weather Stations

Elev 938 ft 35.93 °N, 83.93 °W | Updated 14 seconds ago

Partly Cloudy
Partly Cloudy
42.4 °F
Feels Like 42 °F
N
0.4
Wind Variable Wind from NE
Gusts 2.5 mph

Today
High -- | Low -- °F
--% Chance of Precip.
Yesterday
High -- | Low -- °F
Precip. -- in
7:07 AM 6:29 PM
Waxing Gibbous, 79% visible
Pressure 30.60 in
Visibility 10.0 miles
Clouds Scattered Clouds 18000 ft
Mostly Cloudy 25000 ft
Windchill 42 °F
Dew Point 19 °F
Humidity 38%
Rainfall 0.05 in
Snow Depth Not available.
UV 2.0 out of 12
Pollen 1.20 out of 12
Air Quality Not available.
Flu Activity Not available.
METAR KTYS 281753Z 05006KT 10SM SCT180 BKN250 03/M06 A3058 RMK AO2 SLP362 4/001 T00281061 10028 21044 58009

More Conditions Fewer Conditions

Pressure 30.60 in
Visibility 10.0 miles
Clouds Scattered Clouds 18000 ft
Mostly Cloudy 25000 ft
Windchill 42 °F
Dew Point 19 °F
Humidity 38%
Rainfall 0.05 in
Snow Depth Not available.
UV 2.0 out of 12
Pollen 1.20 out of 12
Air Quality Not available.
Flu Activity Not available.
METAR KTYS 281753Z 05006KT 10SM SCT180 BKN250 03/M06 A3058 RMK AO2 SLP362 4/001 T00281061 10028 21044 58009

More Conditions Fewer Conditions

10-Day Weather Forecast

Almanac

Astronomy

Feb. 28, 2015 Rise Set
Actual Time
Civil Twilight
Nautical Twilight
Astronomical Twilight
Moon
Length of Visible Light
Length of Day
Tomorrow will be .
, % of the Moon is Illuminated

Today's Extremes

State Highs State Lows

Community

WunderPhotos

Upload Photos

1,801,111 photos uploaded!

WunderBlogs® & News

Nearby

Air Quality

  Air Quality AQ Index Pollutant
Not available.

Snow Depth

Station Depth Elevation

Earthquake Activity

City Distance Mag. Time & Date
Minimum magnitude displayed is 2.5.

Coastal Water Temperatures

Place Temperature

Nearby Weather Stations